Time;durP1;ratioP1;P1;durP2;ratioP2;P2;SDS_P1;SDS_P2;PMS_P1;PMS_P2;Temp;Humidity;BMP_temperature;BMP_pressure;BME280_temperature;BME280_humidity;BME280_pressure;Samples;Min_cycle;Max_cycle;Signal;HPM_P1;HPM_P2
2022/10/01 00:01:21;;;;;;;3.40;3.10;;;8.70;99.90;;;;;;5036327;28;20635;-92
2022/10/01 00:03:48;;;;;;;2.95;2.65;;;8.70;99.90;;;;;;5036718;28;20238;-92
2022/10/01 00:06:17;;;;;;;4.40;3.90;;;8.70;99.90;;;;;;5037524;28;20224;-92
2022/10/01 00:08:47;;;;;;;3.38;2.90;;;8.70;99.90;;;;;;5036911;28;20201;-94
2022/10/01 00:11:18;;;;;;;4.50;3.85;;;8.70;99.90;;;;;;5037448;28;20208;-93
2022/10/01 00:13:45;;;;;;;3.72;3.40;;;8.60;99.90;;;;;;5041478;23;20224;-67
2022/10/01 00:16:14;;;;;;;5.00;3.80;;;8.70;99.90;;;;;;5031912;28;20577;-67
2022/10/01 00:18:44;;;;;;;3.67;3.22;;;8.60;99.90;;;;;;5032096;28;20697;-67
2022/10/01 00:21:13;;;;;;;3.80;3.42;;;8.50;99.90;;;;;;5051566;28;20232;-66
2022/10/01 00:23:40;;;;;;;3.20;2.90;;;8.50;99.90;;;;;;5052014;28;20595;-67
2022/10/01 00:26:17;;;;;;;3.10;2.80;;;8.50;99.90;;;;;;5051830;28;20208;-67
2022/10/01 00:28:46;;;;;;;3.88;3.33;;;8.50;99.90;;;;;;5052166;28;20210;-67
2022/10/01 00:31:14;;;;;;;3.60;3.03;;;8.50;99.90;;;;;;5051342;28;20209;-67
2022/10/01 00:33:42;;;;;;;3.30;3.10;;;8.50;99.90;;;;;;5051266;28;20232;-67
2022/10/01 00:36:10;;;;;;;4.05;3.40;;;8.50;99.90;;;;;;5051890;28;20599;-67
2022/10/01 00:38:39;;;;;;;3.92;3.03;;;8.50;99.90;;;;;;5051217;28;20216;-67
2022/10/01 00:41:06;;;;;;;3.65;3.35;;;8.50;99.90;;;;;;5051844;28;20198;-67
2022/10/01 00:43:37;;;;;;;3.88;3.50;;;8.50;99.90;;;;;;5050899;28;20226;-67
2022/10/01 00:46:09;;;;;;;3.05;2.75;;;8.50;99.90;;;;;;5051783;28;20243;-67
2022/10/01 00:48:43;;;;;;;3.33;2.95;;;8.40;99.90;;;;;;5051801;28;20223;-67
2022/10/01 00:51:12;;;;;;;3.20;2.60;;;8.50;99.90;;;;;;5051039;28;20231;-67
2022/10/01 00:53:40;;;;;;;3.45;3.15;;;8.40;99.90;;;;;;5051483;28;20222;-67
2022/10/01 00:56:07;;;;;;;4.28;3.30;;;8.50;99.90;;;;;;5051301;28;20215;-66
2022/10/01 00:58:35;;;;;;;4.32;2.92;;;8.50;99.90;;;;;;5051268;28;20207;-67
2022/10/01 01:01:02;;;;;;;3.72;3.30;;;8.50;99.90;;;;;;5051336;28;20211;-67
2022/10/01 01:03:29;;;;;;;3.28;2.97;;;8.50;99.90;;;;;;5050232;28;20236;-67
2022/10/01 01:05:56;;;;;;;2.70;2.50;;;8.50;99.90;;;;;;5051456;28;20210;-67
2022/10/01 01:08:22;;;;;;;3.30;3.00;;;8.50;99.90;;;;;;5050742;28;20197;-67
2022/10/01 01:11:00;;;;;;;3.33;3.00;;;8.50;99.90;;;;;;5051530;28;20207;-67
2022/10/01 01:13:34;;;;;;;3.55;2.88;;;8.50;99.90;;;;;;5050438;28;20270;-67
2022/10/01 01:16:09;;;;;;;3.72;3.35;;;8.50;99.90;;;;;;5050873;28;20207;-67
2022/10/01 01:18:41;;;;;;;3.25;2.95;;;8.50;99.90;;;;;;5051556;28;20211;-67
2022/10/01 01:21:23;;;;;;;3.13;2.92;;;8.50;99.90;;;;;;5050559;28;20204;-67
2022/10/01 01:24:06;;;;;;;3.00;2.70;;;8.50;99.90;;;;;;5050951;28;20221;-67
2022/10/01 01:26:41;;;;;;;3.05;2.70;;;8.50;99.90;;;;;;5050605;28;20251;-67
2022/10/01 01:29:15;;;;;;;3.45;3.15;;;8.40;99.90;;;;;;5051095;28;20683;-67
2022/10/01 01:31:45;;;;;;;4.28;3.58;;;8.50;99.90;;;;;;5050336;28;20212;-67
2022/10/01 01:34:17;;;;;;;3.15;2.85;;;8.50;99.90;;;;;;5050645;28;20684;-67
2022/10/01 01:36:53;;;;;;;3.38;3.08;;;8.50;99.90;;;;;;5050989;28;20209;-67
2022/10/01 01:39:22;;;;;;;3.72;3.08;;;8.40;99.90;;;;;;5050171;28;20252;-67
2022/10/01 01:41:55;;;;;;;2.83;2.63;;;8.50;99.90;;;;;;5050117;28;20198;-67
2022/10/01 01:44:26;;;;;;;3.60;2.83;;;8.60;99.90;;;;;;5049994;28;20233;-67
2022/10/01 01:46:56;;;;;;;2.47;2.28;;;8.60;99.90;;;;;;5050771;28;20206;-67
2022/10/01 01:49:23;;;;;;;3.25;2.78;;;8.60;99.90;;;;;;5050546;28;20238;-67
2022/10/01 01:51:56;;;;;;;3.05;2.75;;;8.60;99.90;;;;;;5049908;28;20556;-67
2022/10/01 01:54:24;;;;;;;2.85;2.63;;;8.50;99.90;;;;;;5050415;28;20226;-67
2022/10/01 01:56:52;;;;;;;3.00;2.70;;;8.60;99.90;;;;;;5050454;28;20206;-67
2022/10/01 01:59:19;;;;;;;3.60;3.30;;;8.50;99.90;;;;;;5050306;28;20229;-67
2022/10/01 02:01:48;;;;;;;4.10;3.20;;;8.50;99.90;;;;;;5050141;28;20204;-67
2022/10/01 02:04:20;;;;;;;4.78;3.10;;;8.50;99.90;;;;;;5050005;28;20777;-66
2022/10/01 02:07:03;;;;;;;3.40;3.10;;;8.60;99.90;;;;;;5050549;28;20224;-67
2022/10/01 02:09:35;;;;;;;3.05;2.75;;;8.60;99.90;;;;;;5050033;28;20200;-67
2022/10/01 02:12:12;;;;;;;2.97;2.67;;;8.60;99.90;;;;;;5049905;28;20208;-67
2022/10/01 02:14:47;;;;;;;4.85;2.90;;;8.60;99.90;;;;;;5049888;28;20232;-67
2022/10/01 02:17:24;;;;;;;3.85;2.88;;;8.60;99.90;;;;;;5050348;28;20215;-67
2022/10/01 02:19:57;;;;;;;3.67;3.22;;;8.60;99.90;;;;;;5050318;28;20223;-67
2022/10/01 02:22:32;;;;;;;2.75;2.42;;;8.60;99.90;;;;;;5049284;28;20209;-67
2022/10/01 02:25:01;;;;;;;3.80;3.13;;;8.60;99.90;;;;;;5050373;28;20651;-67
2022/10/01 02:27:31;;;;;;;3.13;2.80;;;8.70;99.90;;;;;;5049818;28;20220;-67
2022/10/01 02:30:01;;;;;;;4.03;2.50;;;8.60;99.90;;;;;;5050233;28;20216;-67
2022/10/01 02:32:31;;;;;;;3.13;2.83;;;8.70;99.90;;;;;;5049219;28;20227;-67
2022/10/01 02:34:59;;;;;;;3.20;2.75;;;8.60;99.90;;;;;;5050397;28;20257;-67
2022/10/01 02:37:27;;;;;;;2.65;2.45;;;8.60;99.90;;;;;;5050092;28;20204;-67
2022/10/01 02:39:56;;;;;;;3.03;2.72;;;8.60;99.90;;;;;;5049882;28;20231;-67
2022/10/01 02:42:25;;;;;;;3.33;2.50;;;8.60;99.90;;;;;;5049340;28;20208;-67
2022/10/01 02:44:53;;;;;;;3.55;2.70;;;8.60;99.90;;;;;;5049673;28;20232;-67
2022/10/01 02:47:23;;;;;;;2.70;2.50;;;8.60;99.90;;;;;;5049850;28;20209;-67
2022/10/01 02:49:52;;;;;;;2.50;2.30;;;8.60;99.90;;;;;;5049636;28;20205;-67
2022/10/01 02:52:27;;;;;;;2.42;2.22;;;8.60;99.90;;;;;;5049247;28;20197;-66
2022/10/01 02:54:59;;;;;;;2.80;2.60;;;8.60;99.90;;;;;;5050358;28;20608;-66
2022/10/01 02:57:29;;;;;;;2.53;2.20;;;8.60;99.90;;;;;;5053237;28;20578;-66
2022/10/01 02:59:58;;;;;;;3.13;2.83;;;8.60;99.90;;;;;;5053611;28;20222;-66
2022/10/01 03:02:26;;;;;;;2.88;2.55;;;8.60;99.90;;;;;;5052753;28;20203;-66
2022/10/01 03:04:55;;;;;;;3.25;2.40;;;8.60;99.90;;;;;;5053580;28;20759;-66
2022/10/01 03:07:22;;;;;;;3.10;2.80;;;8.60;99.90;;;;;;5053194;28;20233;-65
2022/10/01 03:09:49;;;;;;;3.10;2.80;;;8.70;99.90;;;;;;5053439;28;20194;-66
2022/10/01 03:12:17;;;;;;;4.93;2.38;;;8.70;99.90;;;;;;5052657;28;20201;-66
2022/10/01 03:14:44;;;;;;;2.55;2.35;;;8.70;99.90;;;;;;5052796;28;20225;-68
2022/10/01 03:17:11;;;;;;;3.28;2.97;;;8.70;99.90;;;;;;5053369;28;20208;-66
2022/10/01 03:19:39;;;;;;;3.85;2.85;;;8.70;99.90;;;;;;5052937;28;20702;-66
2022/10/01 03:22:07;;;;;;;2.63;2.35;;;8.70;99.90;;;;;;5052767;28;20230;-66
2022/10/01 03:24:34;;;;;;;2.80;2.50;;;8.70;99.90;;;;;;5052721;28;20225;-66
2022/10/01 03:27:01;;;;;;;2.70;2.50;;;8.70;99.90;;;;;;5052798;28;20294;-66
2022/10/01 03:29:28;;;;;;;2.33;2.13;;;8.60;99.90;;;;;;5052930;28;20458;-66
2022/10/01 03:31:55;;;;;;;2.33;2.15;;;8.60;99.90;;;;;;5051020;28;20206;-66
2022/10/01 03:34:22;;;;;;;3.03;2.70;;;8.60;99.90;;;;;;5052551;28;20720;-66
2022/10/01 03:36:48;;;;;;;2.95;2.67;;;8.60;99.90;;;;;;5052732;28;20217;-66
2022/10/01 03:39:17;;;;;;;2.78;2.47;;;8.60;99.90;;;;;;5052878;28;20671;-66
2022/10/01 03:41:43;;;;;;;3.40;2.90;;;8.60;99.90;;;;;;5052236;28;20577;-66
2022/10/01 03:44:10;;;;;;;2.60;2.40;;;8.60;99.90;;;;;;5052276;28;20644;-66
2022/10/01 03:46:37;;;;;;;2.42;2.17;;;8.60;99.90;;;;;;5052973;28;20204;-66
2022/10/01 03:49:04;;;;;;;2.78;2.25;;;8.60;99.90;;;;;;5052375;28;20215;-67
2022/10/01 03:51:32;;;;;;;2.97;2.72;;;8.60;99.90;;;;;;5052046;28;20200;-66
2022/10/01 03:53:59;;;;;;;3.20;2.90;;;8.70;99.90;;;;;;5052478;28;20225;-66
2022/10/01 03:56:27;;;;;;;3.25;2.22;;;8.60;99.90;;;;;;5052599;28;20205;-66
2022/10/01 03:58:54;;;;;;;3.83;2.50;;;8.50;99.90;;;;;;5052551;28;20204;-66
2022/10/01 04:01:21;;;;;;;2.40;2.20;;;8.50;99.90;;;;;;5051429;28;20740;-66
2022/10/01 04:03:49;;;;;;;2.60;2.40;;;8.60;99.90;;;;;;5052453;28;20251;-66
2022/10/01 04:06:16;;;;;;;2.20;2.00;;;8.50;99.90;;;;;;5051412;28;20584;-66
2022/10/01 04:08:43;;;;;;;3.55;2.03;;;8.50;99.90;;;;;;5051907;28;20204;-67
2022/10/01 04:11:10;;;;;;;1.80;1.70;;;8.50;99.90;;;;;;5052005;28;20204;-66
2022/10/01 04:13:38;;;;;;;2.78;1.80;;;8.50;99.90;;;;;;5051411;28;20254;-66
2022/10/01 04:16:06;;;;;;;2.30;1.60;;;8.60;99.90;;;;;;5052357;28;20686;-66
2022/10/01 04:18:34;;;;;;;2.17;1.98;;;8.60;99.90;;;;;;5051759;28;20204;-66
2022/10/01 04:21:01;;;;;;;2.58;2.30;;;8.60;99.90;;;;;;5052159;28;20225;-66
2022/10/01 04:23:27;;;;;;;1.88;1.77;;;8.60;99.90;;;;;;5051268;28;20233;-66
2022/10/01 04:25:54;;;;;;;2.10;1.88;;;8.60;99.90;;;;;;5052022;28;20216;-66
2022/10/01 04:28:21;;;;;;;2.60;2.20;;;8.50;99.90;;;;;;5051934;28;20209;-66
2022/10/01 04:31:23;;;;;;;2.95;2.22;;;8.50;99.90;;;;;;5051626;28;20676;-66
2022/10/01 04:33:36;;;;;;;2.25;2.05;;;8.50;99.90;;;;;;5051383;28;20228;-66
2022/10/01 04:36:03;;;;;;;2.15;1.63;;;8.60;99.90;;;;;;5051704;28;20214;-66
2022/10/01 04:38:29;;;;;;;2.33;2.03;;;8.60;99.90;;;;;;5052079;28;20210;-66
2022/10/01 04:40:56;;;;;;;2.13;1.95;;;8.70;99.90;;;;;;5052279;28;20230;-66
2022/10/01 04:43:23;;;;;;;2.05;1.90;;;8.70;99.90;;;;;;5052048;28;20219;-66
2022/10/01 04:45:51;;;;;;;3.70;2.10;;;8.70;99.90;;;;;;5052696;28;20211;-67
2022/10/01 04:48:18;;;;;;;2.13;1.85;;;8.70;99.90;;;;;;5051521;28;20216;-67
2022/10/01 04:50:44;;;;;;;1.70;1.55;;;8.70;99.90;;;;;;5052089;28;20209;-66
2022/10/01 04:53:11;;;;;;;2.20;1.98;;;8.60;99.90;;;;;;5050540;28;20204;-66
2022/10/01 04:55:38;;;;;;;1.73;1.63;;;8.60;99.90;;;;;;5051456;28;20205;-66
2022/10/01 04:58:05;;;;;;;2.42;1.73;;;8.60;99.90;;;;;;5051191;28;20209;-66
2022/10/01 05:00:32;;;;;;;1.90;1.60;;;8.60;99.90;;;;;;5051118;28;20602;-66
2022/10/01 05:03:00;;;;;;;1.65;1.50;;;8.70;99.90;;;;;;5050734;28;20207;-66
2022/10/01 05:07:55;;;;;;;1.70;1.60;;;8.80;99.90;;;;;;5029503;28;20295;-70
2022/10/01 05:10:23;;;;;;;2.30;1.88;;;8.90;99.90;;;;;;5030645;28;20914;-70
2022/10/01 05:12:51;;;;;;;1.80;1.70;;;9.00;99.90;;;;;;5030831;28;20205;-69
2022/10/01 05:15:18;;;;;;;1.65;1.52;;;9.10;99.90;;;;;;5030980;28;20248;-70
2022/10/01 05:17:46;;;;;;;1.73;1.60;;;9.20;99.90;;;;;;5031051;28;20205;-70
2022/10/01 05:20:18;;;;;;;1.60;1.50;;;9.20;99.90;;;;;;5030994;28;20334;-70
2022/10/01 05:22:51;;;;;;;2.20;1.70;;;9.10;99.90;;;;;;5027153;28;20205;-70
2022/10/01 05:25:20;;;;;;;1.90;1.58;;;9.10;99.90;;;;;;5028252;28;20668;-70
2022/10/01 05:27:48;;;;;;;1.50;1.30;;;9.10;99.90;;;;;;5029813;28;20209;-70
2022/10/01 05:30:22;;;;;;;1.70;1.50;;;9.10;99.90;;;;;;5030488;28;20200;-69
2022/10/01 05:32:57;;;;;;;2.38;1.95;;;9.10;99.90;;;;;;5030376;28;20206;-69
2022/10/01 05:35:26;;;;;;;5.00;1.63;;;9.10;99.90;;;;;;5030264;28;20211;-69
2022/10/01 05:37:57;;;;;;;2.08;1.55;;;9.10;99.90;;;;;;5030211;28;20259;-69
2022/10/01 05:40:26;;;;;;;1.55;1.30;;;9.10;99.90;;;;;;5029560;28;20220;-69
2022/10/01 05:42:53;;;;;;;2.40;2.00;;;9.10;99.90;;;;;;5028875;28;20813;-69
2022/10/01 05:45:21;;;;;;;1.60;1.50;;;9.00;99.90;;;;;;5029118;28;20213;-69
2022/10/01 05:47:48;;;;;;;1.80;1.38;;;9.10;99.90;;;;;;5029967;28;20201;-69
2022/10/01 05:50:15;;;;;;;1.70;1.60;;;9.10;99.90;;;;;;5030147;28;20198;-68
2022/10/01 05:52:53;;;;;;;2.10;1.35;;;9.10;99.90;;;;;;5029173;28;20203;-68
2022/10/01 05:55:21;;;;;;;2.75;1.58;;;9.10;99.90;;;;;;5030165;28;20237;-69
2022/10/01 05:57:54;;;;;;;1.60;1.50;;;9.10;99.90;;;;;;5030137;28;20208;-69
2022/10/01 06:00:21;;;;;;;2.30;1.40;;;9.10;99.90;;;;;;5029806;28;20204;-68
2022/10/01 06:02:50;;;;;;;1.75;1.60;;;9.00;99.90;;;;;;5029947;28;20264;-68
2022/10/01 06:05:17;;;;;;;1.40;1.20;;;9.00;99.90;;;;;;5029301;28;20704;-68
2022/10/01 06:07:44;;;;;;;2.15;1.95;;;9.00;99.90;;;;;;5029577;28;20224;-68
2022/10/01 06:10:12;;;;;;;1.65;1.30;;;9.10;99.90;;;;;;5029183;28;20223;-68
2022/10/01 06:12:39;;;;;;;1.75;1.63;;;9.10;99.90;;;;;;5029836;28;20241;-69
2022/10/01 06:15:06;;;;;;;1.30;1.20;;;9.10;99.90;;;;;;5029863;28;20607;-68
2022/10/01 06:17:33;;;;;;;1.35;1.13;;;9.10;99.90;;;;;;5029566;28;20212;-68
2022/10/01 06:20:00;;;;;;;2.22;1.55;;;9.10;99.90;;;;;;5030041;28;20590;-69
2022/10/01 06:22:27;;;;;;;1.75;1.45;;;9.10;99.90;;;;;;5028605;28;20252;-68
2022/10/01 06:24:54;;;;;;;1.70;1.58;;;9.10;99.90;;;;;;5028541;28;20225;-68
2022/10/01 06:27:22;;;;;;;1.85;1.67;;;9.10;99.90;;;;;;5030115;28;20260;-69
2022/10/01 06:29:48;;;;;;;3.10;1.63;;;9.10;99.90;;;;;;5028094;28;20223;-69
2022/10/01 06:32:18;;;;;;;1.60;1.40;;;9.00;99.90;;;;;;5032785;28;20198;-69
2022/10/01 06:34:45;;;;;;;1.50;1.40;;;9.10;99.90;;;;;;5033142;28;20225;-68
2022/10/01 06:37:12;;;;;;;1.67;1.58;;;9.00;99.90;;;;;;5033378;28;20209;-68
2022/10/01 06:39:38;;;;;;;1.52;1.20;;;9.00;99.90;;;;;;5033861;28;20205;-68
2022/10/01 06:42:05;;;;;;;2.33;1.60;;;8.90;99.90;;;;;;5032106;28;20591;-69
2022/10/01 06:44:34;;;;;;;2.38;1.50;;;9.00;99.90;;;;;;5033263;28;20233;-69
2022/10/01 06:47:01;;;;;;;1.35;1.02;;;9.00;99.90;;;;;;5030762;28;20348;-69
2022/10/01 06:49:27;;;;;;;1.73;1.45;;;9.00;99.90;;;;;;5032884;28;20332;-69
2022/10/01 06:54:39;;;;;;;2.38;1.50;;;9.10;99.90;;;;;;5033319;28;20324;-69
2022/10/01 06:57:05;;;;;;;1.73;1.40;;;9.10;99.90;;;;;;5033255;28;20272;-69
2022/10/01 06:59:35;;;;;;;1.65;1.50;;;9.20;99.90;;;;;;5032750;28;20297;-69
2022/10/01 07:02:02;;;;;;;2.00;1.60;;;9.20;99.90;;;;;;5032607;28;20224;-71
2022/10/01 07:04:29;;;;;;;2.05;1.10;;;9.20;99.90;;;;;;5032704;28;21006;-72
2022/10/01 07:06:57;;;;;;;1.85;1.42;;;9.20;99.90;;;;;;5032706;28;20299;-71
2022/10/01 07:09:24;;;;;;;1.20;1.10;;;9.30;99.90;;;;;;5032293;28;20210;-71
2022/10/01 07:11:51;;;;;;;1.30;1.20;;;9.40;99.90;;;;;;5032105;28;20806;-71
2022/10/01 07:14:19;;;;;;;1.10;1.00;;;9.40;99.90;;;;;;5032281;28;20222;-71
2022/10/01 07:16:47;;;;;;;2.13;1.90;;;9.40;99.90;;;;;;5032117;28;20202;-71
2022/10/01 07:19:13;;;;;;;1.40;1.30;;;9.40;99.90;;;;;;5031669;28;20653;-71
2022/10/01 07:21:40;;;;;;;1.35;1.25;;;9.50;99.90;;;;;;5032089;28;20240;-70
2022/10/01 07:24:07;;;;;;;1.55;1.45;;;9.40;99.90;;;;;;5032044;28;20223;-69
2022/10/01 07:26:34;;;;;;;2.85;1.45;;;9.40;99.90;;;;;;5032687;28;20205;-69
2022/10/01 07:29:00;;;;;;;1.20;1.10;;;9.40;99.90;;;;;;5031902;28;20206;-69
2022/10/01 07:31:27;;;;;;;2.28;1.63;;;9.40;99.90;;;;;;5030656;28;20662;-69
2022/10/01 07:33:57;;;;;;;1.88;1.70;;;9.40;99.90;;;;;;5030224;28;20717;-69
2022/10/01 07:36:24;;;;;;;1.60;1.50;;;9.40;99.90;;;;;;5031822;28;20260;-69
2022/10/01 07:38:51;;;;;;;1.90;1.20;;;9.40;99.90;;;;;;5032386;28;20697;-69
2022/10/01 07:41:18;;;;;;;1.90;1.70;;;9.40;99.90;;;;;;5030780;28;20228;-69
2022/10/01 07:43:46;;;;;;;1.70;1.25;;;9.40;99.90;;;;;;5031604;28;20229;-69
2022/10/01 07:46:13;;;;;;;1.98;1.60;;;9.40;99.90;;;;;;5032116;28;20206;-69
2022/10/01 07:48:40;;;;;;;2.75;1.48;;;9.50;99.90;;;;;;5029861;28;20206;-69
2022/10/01 07:51:09;;;;;;;2.10;1.70;;;9.50;99.90;;;;;;5028948;28;20215;-69
2022/10/01 07:53:36;;;;;;;6.35;1.55;;;9.40;99.90;;;;;;5030427;28;20774;-69
2022/10/01 07:56:03;;;;;;;1.60;1.50;;;9.50;99.90;;;;;;5032132;28;20210;-69
2022/10/01 07:58:30;;;;;;;1.40;1.30;;;9.50;99.90;;;;;;5031780;28;20206;-69
2022/10/01 08:00:59;;;;;;;1.73;1.63;;;9.40;99.90;;;;;;5031278;28;20228;-69
2022/10/01 08:03:26;;;;;;;1.73;1.63;;;9.40;99.90;;;;;;5030231;28;20230;-68
2022/10/01 08:05:54;;;;;;;2.20;1.77;;;9.40;99.90;;;;;;5029832;28;20219;-69
2022/10/01 08:08:22;;;;;;;1.75;1.17;;;9.40;99.90;;;;;;5029587;28;20206;-68
2022/10/01 08:10:49;;;;;;;2.92;1.60;;;9.50;99.90;;;;;;5031810;28;20231;-68
2022/10/01 08:13:17;;;;;;;2.42;1.40;;;9.40;99.90;;;;;;5027823;28;20222;-69
2022/10/01 08:15:48;;;;;;;1.55;1.45;;;9.50;99.90;;;;;;5031506;28;20206;-69
2022/10/01 08:18:15;;;;;;;1.30;1.20;;;9.40;99.90;;;;;;5031111;28;20244;-69
2022/10/01 08:20:43;;;;;;;1.58;1.30;;;9.40;99.90;;;;;;5031562;28;20252;-69
2022/10/01 08:23:11;;;;;;;1.23;1.13;;;9.40;99.90;;;;;;5030267;28;20222;-69
2022/10/01 08:25:40;;;;;;;1.85;1.73;;;9.40;99.90;;;;;;5031550;28;20206;-69
2022/10/01 08:28:08;;;;;;;1.58;1.40;;;9.50;99.90;;;;;;5031289;28;20212;-70
2022/10/01 08:30:37;;;;;;;1.70;1.40;;;9.40;99.90;;;;;;5030568;28;20209;-69
2022/10/01 08:33:04;;;;;;;1.58;1.48;;;9.50;99.90;;;;;;5030967;28;20233;-69
2022/10/01 08:35:31;;;;;;;1.98;1.85;;;9.50;99.90;;;;;;5030191;28;20213;-69
2022/10/01 08:38:01;;;;;;;2.42;1.63;;;9.50;99.90;;;;;;5031373;28;20213;-70
2022/10/01 08:40:28;;;;;;;1.60;1.40;;;9.40;99.90;;;;;;5030762;28;20209;-69
2022/10/01 08:43:05;;;;;;;1.33;1.20;;;9.50;99.90;;;;;;5029721;28;20756;-69
2022/10/01 08:45:38;;;;;;;1.45;1.33;;;9.50;99.90;;;;;;5030970;28;20216;-69
2022/10/01 08:48:11;;;;;;;1.60;1.50;;;9.50;99.90;;;;;;5030857;28;20207;-71
2022/10/01 08:50:44;;;;;;;2.83;1.90;;;9.50;99.90;;;;;;5030686;28;20205;-69
2022/10/01 08:53:18;;;;;;;2.33;1.90;;;9.50;99.90;;;;;;5029184;28;20221;-70
2022/10/01 08:55:47;;;;;;;2.08;1.50;;;9.50;99.90;;;;;;5030480;28;20202;-69
2022/10/01 08:58:28;;;;;;;3.38;1.92;;;9.50;99.90;;;;;;5029912;28;20207;-69
2022/10/01 09:00:55;;;;;;;1.40;1.30;;;9.50;99.90;;;;;;5030780;28;20212;-69
2022/10/01 09:03:22;;;;;;;1.85;1.63;;;9.50;99.90;;;;;;5029900;28;20222;-69
2022/10/01 09:05:59;;;;;;;1.75;1.65;;;9.50;99.90;;;;;;5030365;28;20261;-69
2022/10/01 09:08:43;;;;;;;1.83;1.63;;;9.60;99.90;;;;;;5030222;28;20216;-69
2022/10/01 09:11:20;;;;;;;4.40;1.65;;;9.60;99.90;;;;;;5030253;28;20235;-69
2022/10/01 09:14:06;;;;;;;2.05;1.83;;;9.60;99.90;;;;;;5029017;28;20256;-69
2022/10/01 09:16:41;;;;;;;1.75;1.65;;;9.60;99.90;;;;;;5026027;28;20721;-69
2022/10/01 09:19:22;;;;;;;1.50;1.40;;;9.70;99.90;;;;;;5028370;28;20255;-69
2022/10/01 09:21:57;;;;;;;1.50;1.38;;;9.70;99.90;;;;;;5028150;28;20634;-69
2022/10/01 09:24:37;;;;;;;1.50;1.40;;;9.80;99.90;;;;;;5027862;28;20217;-69
2022/10/01 09:27:11;;;;;;;2.10;1.60;;;9.80;99.90;;;;;;5028299;28;20207;-69
2022/10/01 09:29:43;;;;;;;1.30;1.20;;;9.90;99.90;;;;;;5028872;28;20634;-69
2022/10/01 09:32:15;;;;;;;1.50;1.30;;;9.90;99.90;;;;;;5045366;28;20198;-69
2022/10/01 09:34:43;;;;;;;1.33;1.10;;;10.00;99.90;;;;;;5049768;28;20225;-71
2022/10/01 09:37:22;;;;;;;1.55;1.40;;;10.00;99.90;;;;;;5050243;28;20216;-69
2022/10/01 09:39:59;;;;;;;2.15;1.40;;;10.00;99.90;;;;;;5049778;28;20590;-69
2022/10/01 09:42:29;;;;;;;1.35;1.10;;;10.00;99.90;;;;;;5049070;28;20225;-69
2022/10/01 09:44:57;;;;;;;2.53;1.13;;;10.10;99.90;;;;;;5049714;28;20229;-69
2022/10/01 09:47:25;;;;;;;1.63;1.30;;;10.10;99.90;;;;;;5049180;28;20235;-69
2022/10/01 09:49:52;;;;;;;1.20;1.10;;;10.20;99.90;;;;;;5050367;28;20204;-69
2022/10/01 09:52:23;;;;;;;1.20;1.10;;;10.20;99.90;;;;;;5048605;28;20200;-69
2022/10/01 09:54:55;;;;;;;1.60;1.10;;;10.20;99.90;;;;;;5050102;28;20221;-70
2022/10/01 09:57:26;;;;;;;1.30;1.10;;;10.30;99.90;;;;;;5048630;28;20201;-70
2022/10/01 10:00:01;;;;;;;1.40;1.30;;;10.30;99.90;;;;;;5050235;28;20213;-70
2022/10/01 10:02:32;;;;;;;1.15;1.05;;;10.40;99.90;;;;;;5049177;28;20709;-70
2022/10/01 10:05:00;;;;;;;1.20;1.10;;;10.40;99.90;;;;;;5052263;28;20232;-70
2022/10/01 10:07:28;;;;;;;0.90;0.80;;;10.40;99.90;;;;;;5053917;28;20209;-70
2022/10/01 10:09:55;;;;;;;1.00;0.90;;;10.40;99.90;;;;;;5053221;28;20208;-70
2022/10/01 10:12:30;;;;;;;1.15;1.05;;;10.40;99.90;;;;;;5053491;28;20198;-70
2022/10/01 10:15:08;;;;;;;1.10;1.00;;;10.40;99.90;;;;;;5054097;28;20219;-70
2022/10/01 10:17:36;;;;;;;1.13;1.02;;;10.40;99.90;;;;;;5035347;28;20657;-70
2022/10/01 10:20:10;;;;;;;1.05;0.95;;;10.40;99.90;;;;;;5032491;28;20203;-70
2022/10/01 10:22:37;;;;;;;1.30;1.20;;;10.40;99.90;;;;;;5033000;28;20228;-70
2022/10/01 10:25:16;;;;;;;1.10;1.00;;;10.50;99.90;;;;;;5030494;28;20226;-70
2022/10/01 10:27:53;;;;;;;1.20;1.08;;;10.50;99.90;;;;;;5033489;28;20237;-70
2022/10/01 10:30:23;;;;;;;1.83;1.20;;;10.50;99.90;;;;;;5033779;28;20591;-70
2022/10/01 10:32:51;;;;;;;1.10;1.00;;;10.50;99.90;;;;;;5041098;28;20206;-70
2022/10/01 10:35:23;;;;;;;1.55;1.45;;;10.60;99.90;;;;;;5033410;28;20233;-70
2022/10/01 10:37:53;;;;;;;1.33;1.05;;;10.60;99.90;;;;;;5033852;28;20209;-70
2022/10/01 10:40:23;;;;;;;0.80;0.77;;;10.60;99.90;;;;;;5032893;28;20201;-70
2022/10/01 10:42:51;;;;;;;1.10;0.90;;;10.60;99.90;;;;;;5033067;28;20234;-70
2022/10/01 10:45:22;;;;;;;2.65;1.30;;;10.70;99.90;;;;;;5032739;28;20233;-70
2022/10/01 10:47:52;;;;;;;2.78;1.25;;;10.70;99.90;;;;;;5032866;28;20249;-70
2022/10/01 10:50:29;;;;;;;1.20;1.05;;;10.70;99.90;;;;;;5033356;28;20272;-70
2022/10/01 10:52:56;;;;;;;1.23;1.05;;;10.70;99.90;;;;;;5032676;28;20264;-70
2022/10/01 10:55:25;;;;;;;1.08;0.80;;;10.70;99.90;;;;;;5033032;28;20234;-70
2022/10/01 10:57:52;;;;;;;0.90;0.77;;;10.80;99.90;;;;;;5032426;28;20302;-69
2022/10/01 11:00:23;;;;;;;1.05;0.90;;;10.80;99.90;;;;;;5033136;28;20199;-69
2022/10/01 11:02:54;;;;;;;1.00;0.90;;;10.90;99.90;;;;;;5030952;28;20705;-69
2022/10/01 11:05:24;;;;;;;2.63;0.98;;;10.90;99.90;;;;;;5033028;28;20214;-69
2022/10/01 11:07:54;;;;;;;1.00;0.90;;;11.00;99.90;;;;;;5033169;28;20210;-69
2022/10/01 11:10:41;;;;;;;1.10;1.00;;;11.10;99.90;;;;;;5032530;28;20633;-69
2022/10/01 11:13:33;;;;;;;1.20;1.10;;;11.20;99.90;;;;;;5032711;28;20295;-69
2022/10/01 11:16:17;;;;;;;1.00;0.88;;;11.30;99.90;;;;;;5032227;28;20203;-69
2022/10/01 11:19:04;;;;;;;1.20;1.10;;;11.30;99.90;;;;;;5032982;28;20206;-69
2022/10/01 11:21:50;;;;;;;1.10;0.90;;;11.30;99.90;;;;;;5031598;28;20213;-69
2022/10/01 11:24:42;;;;;;;1.20;1.00;;;11.30;99.90;;;;;;5032326;28;20218;-69
2022/10/01 11:27:15;;;;;;;1.40;1.30;;;11.30;99.90;;;;;;5032201;28;20210;-69
2022/10/01 11:29:54;;;;;;;1.27;0.95;;;11.30;99.90;;;;;;5032926;28;20213;-69
2022/10/01 11:32:33;;;;;;;1.85;1.48;;;11.30;99.90;;;;;;5031730;28;20594;-69
2022/10/01 11:35:21;;;;;;;1.25;0.82;;;11.30;99.90;;;;;;5032211;28;20265;-69
2022/10/01 11:38:01;;;;;;;1.10;1.00;;;11.30;99.90;;;;;;5032366;28;20280;-69
2022/10/01 11:40:33;;;;;;;1.00;0.90;;;11.30;99.90;;;;;;5031954;28;20213;-69
2022/10/01 11:43:04;;;;;;;1.15;1.05;;;11.20;99.90;;;;;;5032068;28;20230;-69
2022/10/01 11:45:38;;;;;;;1.38;1.00;;;11.20;99.90;;;;;;5031342;28;20301;-69
2022/10/01 11:48:11;;;;;;;1.30;0.90;;;11.20;99.90;;;;;;5032302;28;20647;-69
2022/10/01 11:50:42;;;;;;;1.05;0.93;;;11.20;99.90;;;;;;5032173;28;20202;-69
2022/10/01 11:53:14;;;;;;;0.95;0.85;;;11.20;99.90;;;;;;5031341;28;20218;-69
2022/10/01 11:58:52;;;;;;;0.90;0.80;;;11.20;99.90;;;;;;5031456;28;20697;-69
2022/10/01 12:01:27;;;;;;;0.95;0.85;;;11.20;99.90;;;;;;5031288;28;20261;-69
2022/10/01 12:04:04;;;;;;;1.00;0.90;;;11.20;99.90;;;;;;5031767;28;20828;-69
2022/10/01 12:06:35;;;;;;;0.90;0.80;;;11.20;99.90;;;;;;5032052;28;20616;-69
2022/10/01 12:09:07;;;;;;;1.20;1.02;;;11.20;99.90;;;;;;5031062;28;20203;-69
2022/10/01 12:11:40;;;;;;;1.15;0.95;;;11.20;99.90;;;;;;5031075;28;20778;-69
2022/10/01 12:14:12;;;;;;;1.20;0.90;;;11.20;99.90;;;;;;5031635;28;20664;-69
2022/10/01 12:16:45;;;;;;;1.00;0.80;;;11.30;99.90;;;;;;5031778;28;20251;-70
2022/10/01 12:19:20;;;;;;;1.02;0.90;;;11.40;99.90;;;;;;5031422;28;20210;-69
2022/10/01 12:21:51;;;;;;;0.88;0.80;;;11.40;99.90;;;;;;5029728;28;20297;-69
2022/10/01 12:24:22;;;;;;;1.00;0.88;;;11.50;99.90;;;;;;5028123;28;20348;-69
2022/10/01 12:27:01;;;;;;;2.00;0.93;;;11.60;99.90;;;;;;5030528;28;20224;-69
2022/10/01 12:29:39;;;;;;;2.10;1.10;;;11.60;99.90;;;;;;5030188;28;20202;-70
2022/10/01 12:32:14;;;;;;;0.80;0.80;;;11.70;99.90;;;;;;5026675;28;20696;-69
2022/10/01 12:34:50;;;;;;;1.92;1.05;;;11.80;99.90;;;;;;5031641;28;20230;-69
2022/10/01 12:37:29;;;;;;;0.80;0.70;;;11.90;99.90;;;;;;5031949;28;20198;-69
2022/10/01 12:40:16;;;;;;;1.20;1.10;;;11.90;99.90;;;;;;5031833;28;20226;-69
2022/10/01 12:43:03;;;;;;;1.10;0.90;;;11.90;99.90;;;;;;5031595;28;20226;-69
2022/10/01 12:45:42;;;;;;;1.00;0.80;;;11.90;99.90;;;;;;5031815;28;20205;-69
2022/10/01 12:48:15;;;;;;;1.00;0.90;;;11.90;99.90;;;;;;5029500;28;20198;-69
2022/10/01 12:50:54;;;;;;;1.20;0.90;;;12.00;99.90;;;;;;5011173;28;20214;-69
2022/10/01 12:53:29;;;;;;;0.90;0.77;;;12.00;99.90;;;;;;5010879;28;20211;-69
2022/10/01 12:56:12;;;;;;;0.90;0.80;;;12.00;99.90;;;;;;5011218;28;20226;-69
2022/10/01 12:59:05;;;;;;;2.15;1.00;;;12.00;99.90;;;;;;5020571;28;20195;-69
2022/10/01 13:01:51;;;;;;;3.58;1.38;;;12.00;99.90;;;;;;5029952;28;20202;-69
2022/10/01 13:04:45;;;;;;;1.02;0.90;;;11.90;99.90;;;;;;5029426;28;20227;-69
2022/10/01 13:07:34;;;;;;;1.25;1.15;;;11.90;99.90;;;;;;5022730;28;20301;-69
2022/10/01 13:10:12;;;;;;;1.77;1.25;;;12.00;99.90;;;;;;5030218;28;20341;-68
2022/10/01 13:12:58;;;;;;;1.02;0.93;;;12.00;99.90;;;;;;5030172;28;20202;-69
2022/10/01 13:15:30;;;;;;;1.00;0.90;;;12.00;99.90;;;;;;5030206;28;20601;-69
2022/10/01 13:18:05;;;;;;;1.00;0.90;;;12.00;99.90;;;;;;5029889;28;20198;-70
2022/10/01 13:20:40;;;;;;;0.90;0.75;;;12.10;99.90;;;;;;5030579;28;20205;-69
2022/10/01 13:23:16;;;;;;;1.10;1.00;;;12.10;99.90;;;;;;5028631;28;20249;-69